Time;durP1;ratioP1;P1;durP2;ratioP2;P2;SDS_P1;SDS_P2;PMS_P1;PMS_P2;Temp;Humidity;BMP_temperature;BMP_pressure;BME280_temperature;BME280_humidity;BME280_pressure;Samples;Min_cycle;Max_cycle;Signal;HPM_P1;HPM_P2
2022/05/27 00:00:30;;;;;;;27.70;10.35;;;;;;;;;;5093603;28;20047;-75
2022/05/27 00:03:35;;;;;;;25.90;10.90;;;;;;;;;;5092722;28;20518;-74
2022/05/27 00:06:40;;;;;;;28.02;10.05;;;;;;;;;;5093092;28;20067;-74
2022/05/27 00:09:44;;;;;;;26.13;10.32;;;;;;;;;;5093260;28;20044;-74
2022/05/27 00:12:48;;;;;;;29.77;10.80;;;;;;;;;;5093021;28;20502;-74
2022/05/27 00:15:53;;;;;;;35.03;11.43;;;;;;;;;;5093059;28;20031;-75
2022/05/27 00:18:58;;;;;;;26.15;10.55;;;;;;;;;;5092958;28;20039;-74
2022/05/27 00:22:02;;;;;;;35.47;12.40;;;;;;;;;;5092359;28;20388;-75
2022/05/27 00:25:07;;;;;;;25.67;10.73;;;;;;;;;;5092017;28;20059;-74
2022/05/27 00:28:11;;;;;;;33.00;11.88;;;;;;;;;;5092878;28;20047;-74
2022/05/27 00:31:18;;;;;;;35.08;11.23;;;;;;;;;;5092749;28;20043;-74
2022/05/27 00:34:22;;;;;;;35.83;10.57;;;;;;;;;;5092415;28;20047;-74
2022/05/27 00:37:27;;;;;;;36.83;11.40;;;;;;;;;;5091788;28;20507;-75
2022/05/27 00:40:39;;;;;;;31.33;11.20;;;;;;;;;;5091588;28;20411;-75
2022/05/27 00:43:44;;;;;;;27.48;11.30;;;;;;;;;;5092245;28;20047;-75
2022/05/27 00:46:48;;;;;;;34.65;10.93;;;;;;;;;;5092637;28;20376;-75
2022/05/27 00:49:54;;;;;;;23.20;9.88;;;;;;;;;;5092295;28;20035;-75
2022/05/27 00:52:59;;;;;;;31.40;10.85;;;;;;;;;;5091551;28;20396;-75
2022/05/27 00:56:04;;;;;;;22.73;10.75;;;;;;;;;;5092344;28;20055;-74
2022/05/27 00:59:31;;;;;;;27.35;10.77;;;;;;;;;;5092277;28;20503;-74
2022/05/27 01:02:36;;;;;;;30.67;10.93;;;;;;;;;;5079678;28;20051;-74
2022/05/27 01:05:42;;;;;;;29.73;9.40;;;;;;;;;;5091797;28;20055;-74
2022/05/27 01:08:47;;;;;;;24.05;9.05;;;;;;;;;;5092273;28;20036;-75
2022/05/27 01:12:23;;;;;;;27.45;9.43;;;;;;;;;;5092106;28;20502;-75
2022/05/27 01:15:34;;;;;;;28.98;9.77;;;;;;;;;;5073930;28;20040;-76
2022/05/27 01:22:07;;;;;;;23.75;7.40;;;;;;;;;;5091737;28;20043;-73
2022/05/27 01:25:32;;;;;;;25.17;7.35;;;;;;;;;;5091295;28;20048;-74
2022/05/27 01:28:39;;;;;;;25.52;7.10;;;;;;;;;;5091876;28;20464;-75
2022/05/27 01:31:43;;;;;;;28.30;6.60;;;;;;;;;;5091688;28;20048;-75
2022/05/27 01:34:54;;;;;;;27.27;6.63;;;;;;;;;;5091637;28;20032;-75
2022/05/27 01:38:17;;;;;;;24.40;6.30;;;;;;;;;;5091152;28;20051;-75
2022/05/27 01:41:42;;;;;;;23.80;5.95;;;;;;;;;;5090669;28;20045;-75
2022/05/27 01:44:50;;;;;;;18.95;6.30;;;;;;;;;;5079067;28;20148;-75
2022/05/27 01:47:57;;;;;;;17.45;5.13;;;;;;;;;;5091444;28;20036;-75
2022/05/27 01:51:09;;;;;;;15.63;5.45;;;;;;;;;;5091207;28;20047;-75
2022/05/27 01:54:13;;;;;;;11.10;5.13;;;;;;;;;;5091393;28;20471;-75
2022/05/27 01:57:36;;;;;;;15.55;4.93;;;;;;;;;;5091675;28;20054;-75
2022/05/27 02:00:42;;;;;;;17.35;5.65;;;;;;;;;;5090303;28;20193;-75
2022/05/27 02:04:07;;;;;;;10.40;4.60;;;;;;;;;;5091221;28;20039;-75
2022/05/27 02:07:20;;;;;;;18.80;5.47;;;;;;;;;;5091351;28;20055;-74
2022/05/27 02:10:24;;;;;;;12.15;5.10;;;;;;;;;;5091230;28;20043;-75
2022/05/27 02:13:40;;;;;;;14.48;5.28;;;;;;;;;;5091236;28;20047;-75
2022/05/27 02:16:51;;;;;;;19.20;5.40;;;;;;;;;;5094942;28;20036;-74
2022/05/27 02:19:57;;;;;;;17.57;5.67;;;;;;;;;;5095356;28;20047;-74
2022/05/27 02:23:08;;;;;;;16.10;5.32;;;;;;;;;;5095338;28;20040;-75
2022/05/27 02:26:15;;;;;;;8.93;4.20;;;;;;;;;;5094400;28;20072;-75
2022/05/27 02:29:23;;;;;;;10.57;4.40;;;;;;;;;;5095599;28;20036;-75
2022/05/27 02:32:33;;;;;;;10.82;4.13;;;;;;;;;;5094465;28;20051;-74
2022/05/27 02:35:40;;;;;;;11.35;3.90;;;;;;;;;;5095053;28;20047;-74
2022/05/27 02:38:45;;;;;;;11.50;3.97;;;;;;;;;;5094896;28;20044;-74
2022/05/27 02:41:57;;;;;;;20.30;5.03;;;;;;;;;;5094672;28;20094;-74
2022/05/27 02:45:20;;;;;;;18.60;5.05;;;;;;;;;;5094620;28;20048;-74
2022/05/27 02:48:28;;;;;;;21.30;5.63;;;;;;;;;;5095308;28;20048;-75
2022/05/27 02:51:38;;;;;;;16.23;5.50;;;;;;;;;;5094970;28;20028;-74
2022/05/27 02:54:54;;;;;;;26.65;6.78;;;;;;;;;;5081939;28;20032;-74
2022/05/27 02:58:02;;;;;;;28.30;6.28;;;;;;;;;;5094901;28;20047;-75
2022/05/27 03:01:06;;;;;;;28.95;6.82;;;;;;;;;;5093851;28;20040;-75
2022/05/27 03:04:10;;;;;;;22.35;5.82;;;;;;;;;;5094398;28;20044;-75
2022/05/27 03:07:24;;;;;;;26.60;6.97;;;;;;;;;;5094354;28;20396;-75
2022/05/27 03:10:28;;;;;;;15.63;6.28;;;;;;;;;;5094689;28;20047;-75
2022/05/27 03:13:32;;;;;;;22.55;6.22;;;;;;;;;;5093453;28;20044;-74
2022/05/27 03:16:43;;;;;;;16.33;6.65;;;;;;;;;;5094038;28;20036;-75
2022/05/27 03:19:53;;;;;;;15.23;6.00;;;;;;;;;;5094489;28;20040;-75
2022/05/27 03:23:16;;;;;;;26.60;7.28;;;;;;;;;;5094552;28;20495;-75
2022/05/27 03:26:21;;;;;;;23.05;8.88;;;;;;;;;;5094328;28;20048;-76
2022/05/27 03:29:44;;;;;;;21.92;8.82;;;;;;;;;;5093076;28;20040;-74
2022/05/27 03:33:07;;;;;;;26.30;8.38;;;;;;;;;;5093932;28;20043;-74
2022/05/27 03:36:18;;;;;;;18.92;6.55;;;;;;;;;;5094151;28;20395;-75
2022/05/27 03:39:25;;;;;;;22.05;6.70;;;;;;;;;;5093320;28;20530;-74
2022/05/27 03:42:30;;;;;;;22.80;6.78;;;;;;;;;;5093492;28;20032;-75
2022/05/27 03:45:47;;;;;;;24.02;8.23;;;;;;;;;;5092649;28;20511;-75
2022/05/27 03:48:51;;;;;;;18.58;7.35;;;;;;;;;;5094000;28;20040;-74
2022/05/27 03:51:57;;;;;;;24.02;7.45;;;;;;;;;;5093406;28;20043;-73
2022/05/27 03:55:02;;;;;;;13.60;6.03;;;;;;;;;;5093826;28;20050;-74
2022/05/27 03:58:07;;;;;;;19.42;7.55;;;;;;;;;;5093458;28;20376;-75
2022/05/27 04:01:12;;;;;;;23.10;7.43;;;;;;;;;;5093384;28;20039;-74
2022/05/27 04:04:19;;;;;;;26.17;7.88;;;;;;;;;;5093046;28;20044;-74
2022/05/27 04:07:23;;;;;;;17.38;6.60;;;;;;;;;;5093258;28;20032;-74
2022/05/27 04:10:28;;;;;;;32.80;7.45;;;;;;;;;;5093112;28;20035;-74
2022/05/27 04:13:32;;;;;;;24.92;6.75;;;;;;;;;;5093402;28;20036;-73
2022/05/27 04:16:37;;;;;;;26.02;7.68;;;;;;;;;;5093224;28;20039;-75
2022/05/27 04:19:41;;;;;;;30.27;7.75;;;;;;;;;;5092494;28;20057;-74
2022/05/27 04:22:45;;;;;;;28.73;7.32;;;;;;;;;;5093213;28;20040;-74
2022/05/27 04:25:50;;;;;;;26.95;7.70;;;;;;;;;;5091690;28;20040;-74
2022/05/27 04:28:54;;;;;;;32.75;7.85;;;;;;;;;;5092975;28;20395;-75
2022/05/27 04:31:58;;;;;;;29.10;7.60;;;;;;;;;;5092881;28;20050;-74
2022/05/27 04:35:03;;;;;;;28.17;8.48;;;;;;;;;;5092006;28;20036;-74
2022/05/27 04:38:08;;;;;;;23.55;7.60;;;;;;;;;;5091558;28;20396;-74
2022/05/27 04:41:13;;;;;;;20.90;6.75;;;;;;;;;;5091819;28;20040;-75
2022/05/27 04:44:17;;;;;;;23.30;8.43;;;;;;;;;;5092093;28;20519;-75
2022/05/27 04:47:22;;;;;;;30.95;7.70;;;;;;;;;;5091518;28;20289;-74
2022/05/27 04:50:27;;;;;;;27.13;7.47;;;;;;;;;;5091673;28;20511;-74
2022/05/27 04:53:31;;;;;;;36.83;8.52;;;;;;;;;;5092160;28;20053;-74
2022/05/27 04:56:35;;;;;;;34.40;8.00;;;;;;;;;;5092221;28;20036;-74
2022/05/27 04:59:40;;;;;;;39.40;7.97;;;;;;;;;;5091623;28;20036;-74
2022/05/27 05:02:44;;;;;;;34.22;8.07;;;;;;;;;;5092153;28;20036;-75
2022/05/27 05:05:49;;;;;;;25.33;7.28;;;;;;;;;;5091139;28;20051;-74
2022/05/27 05:08:53;;;;;;;26.15;7.97;;;;;;;;;;5091997;28;20049;-75
2022/05/27 05:11:57;;;;;;;33.97;9.38;;;;;;;;;;5091991;28;20040;-75
2022/05/27 05:15:02;;;;;;;31.77;9.98;;;;;;;;;;5091883;28;20036;-75
2022/05/27 05:18:07;;;;;;;41.63;10.50;;;;;;;;;;5091818;28;20043;-75
2022/05/27 05:21:12;;;;;;;44.03;10.18;;;;;;;;;;5092086;28;20392;-74
2022/05/27 05:24:17;;;;;;;23.77;9.82;;;;;;;;;;5091707;28;20067;-75
2022/05/27 05:27:26;;;;;;;40.42;10.68;;;;;;;;;;5091691;28;20032;-74
2022/05/27 05:30:30;;;;;;;47.22;11.30;;;;;;;;;;5091805;28;20047;-75
2022/05/27 05:33:34;;;;;;;66.85;14.00;;;;;;;;;;5091299;28;20051;-73
2022/05/27 05:36:40;;;;;;;43.70;10.40;;;;;;;;;;5091396;28;20051;-74
2022/05/27 05:39:45;;;;;;;36.88;9.05;;;;;;;;;;5079003;28;20499;-75
2022/05/27 05:42:50;;;;;;;49.60;11.02;;;;;;;;;;5091296;28;20483;-74
2022/05/27 05:45:54;;;;;;;61.08;10.10;;;;;;;;;;5091258;28;20051;-74
2022/05/27 05:48:58;;;;;;;48.90;9.57;;;;;;;;;;5090259;28;20038;-75
2022/05/27 05:52:03;;;;;;;42.67;9.85;;;;;;;;;;5091219;28;20044;-73
2022/05/27 05:55:10;;;;;;;60.85;10.80;;;;;;;;;;5090865;28;20036;-75
2022/05/27 05:58:14;;;;;;;31.15;9.13;;;;;;;;;;5090734;28;20039;-75
2022/05/27 06:01:18;;;;;;;37.17;9.15;;;;;;;;;;5091489;28;20472;-74
2022/05/27 06:04:22;;;;;;;30.85;9.18;;;;;;;;;;5090422;28;20431;-73
2022/05/27 06:07:29;;;;;;;36.13;11.07;;;;;;;;;;5091360;28;20040;-74
2022/05/27 06:10:33;;;;;;;61.38;11.60;;;;;;;;;;5091231;28;20043;-75
2022/05/27 06:13:40;;;;;;;43.40;10.45;;;;;;;;;;5090052;28;20047;-74
2022/05/27 06:16:44;;;;;;;44.55;9.65;;;;;;;;;;5090802;28;20066;-72
2022/05/27 06:19:48;;;;;;;50.15;10.63;;;;;;;;;;5090251;28;20043;-73
2022/05/27 06:22:53;;;;;;;51.75;9.85;;;;;;;;;;5078586;28;20047;-73
2022/05/27 06:25:58;;;;;;;43.60;9.27;;;;;;;;;;5090677;28;20055;-70
2022/05/27 06:35:49;;;;;;;30.85;7.93;;;;;;;;;;5090624;28;20207;-68
2022/05/27 06:38:53;;;;;;;23.48;8.43;;;;;;;;;;5089948;28;20351;-69
2022/05/27 06:41:57;;;;;;;35.63;8.07;;;;;;;;;;5090683;28;20106;-68
2022/05/27 06:45:10;;;;;;;34.00;8.13;;;;;;;;;;5090378;28;20040;-67
2022/05/27 06:48:15;;;;;;;54.47;11.57;;;;;;;;;;5090935;28;20037;-67
2022/05/27 06:51:20;;;;;;;43.58;9.85;;;;;;;;;;5090726;28;20055;-68
2022/05/27 06:54:24;;;;;;;38.10;9.52;;;;;;;;;;5090241;28;20035;-67
2022/05/27 06:57:28;;;;;;;47.42;9.38;;;;;;;;;;5090474;28;20036;-67
2022/05/27 07:00:33;;;;;;;46.88;11.02;;;;;;;;;;5090632;28;20036;-67
2022/05/27 07:03:37;;;;;;;230.65;26.10;;;;;;;;;;5093825;28;20047;-67
2022/05/27 07:06:43;;;;;;;45.17;9.70;;;;;;;;;;5094249;28;20051;-67
2022/05/27 07:09:48;;;;;;;36.05;9.25;;;;;;;;;;5094377;28;20047;-67
2022/05/27 07:12:53;;;;;;;51.45;10.25;;;;;;;;;;5081509;28;20049;-66
2022/05/27 07:15:57;;;;;;;53.58;9.52;;;;;;;;;;5094148;28;20035;-68
2022/05/27 07:19:01;;;;;;;58.45;10.93;;;;;;;;;;5094339;28;20043;-67
2022/05/27 07:22:10;;;;;;;44.85;9.85;;;;;;;;;;5093486;28;20043;-68
2022/05/27 07:25:15;;;;;;;35.92;8.68;;;;;;;;;;5093381;28;20382;-67
2022/05/27 07:28:19;;;;;;;42.83;10.02;;;;;;;;;;5093737;28;20032;-68
2022/05/27 07:31:24;;;;;;;29.77;9.32;;;;;;;;;;5093679;28;20055;-70
2022/05/27 07:34:29;;;;;;;36.78;9.90;;;;;;;;;;5093562;28;20036;-68
2022/05/27 07:37:33;;;;;;;39.75;9.60;;;;;;;;;;5092910;28;20059;-69
2022/05/27 07:40:38;;;;;;;28.02;10.63;;;;;;;;;;5093924;28;20040;-68
2022/05/27 07:43:43;;;;;;;43.20;13.63;;;;;;;;;;5093434;28;20059;-69
2022/05/27 07:46:51;;;;;;;56.38;15.32;;;;;;;;;;5093661;28;20055;-68
2022/05/27 07:49:55;;;;;;;43.65;12.95;;;;;;;;;;5093464;28;20035;-68
2022/05/27 07:53:00;;;;;;;41.50;10.88;;;;;;;;;;5093116;28;20047;-68
2022/05/27 07:56:05;;;;;;;44.35;10.73;;;;;;;;;;5093234;28;20058;-68
2022/05/27 07:59:09;;;;;;;43.25;10.73;;;;;;;;;;5093479;28;20376;-70
2022/05/27 08:02:14;;;;;;;35.42;10.52;;;;;;;;;;5093213;28;20039;-69
2022/05/27 08:05:20;;;;;;;31.23;10.73;;;;;;;;;;5092890;28;20523;-71
2022/05/27 08:08:25;;;;;;;38.38;11.05;;;;;;;;;;5092341;28;20039;-72
2022/05/27 08:11:29;;;;;;;38.53;11.43;;;;;;;;;;5092861;28;20051;-72
2022/05/27 08:14:33;;;;;;;39.67;11.55;;;;;;;;;;5092364;28;20051;-69
2022/05/27 08:17:38;;;;;;;40.15;11.90;;;;;;;;;;5093165;28;20043;-71
2022/05/27 08:20:43;;;;;;;51.17;15.05;;;;;;;;;;5093100;28;20039;-70
2022/05/27 08:23:47;;;;;;;42.28;15.55;;;;;;;;;;5092579;28;20043;-68
2022/05/27 08:26:51;;;;;;;48.08;14.63;;;;;;;;;;5092747;28;20055;-68
2022/05/27 08:29:56;;;;;;;50.05;14.93;;;;;;;;;;5093037;28;20039;-70
2022/05/27 08:33:01;;;;;;;40.58;13.45;;;;;;;;;;5092674;28;20516;-69
2022/05/27 08:39:28;;;;;;;43.30;14.77;;;;;;;;;;5092626;28;20055;-71
2022/05/27 08:42:41;;;;;;;84.45;19.08;;;;;;;;;;5092345;28;20035;-69
2022/05/27 08:46:04;;;;;;;41.53;14.32;;;;;;;;;;5092116;28;20639;-72
2022/05/27 08:49:10;;;;;;;52.05;15.40;;;;;;;;;;5092550;28;20051;-70
2022/05/27 08:52:18;;;;;;;49.58;15.68;;;;;;;;;;5092331;28;20039;-72
2022/05/27 08:59:27;;;;;;;52.13;15.90;;;;;;;;;;5092228;28;20047;-71
2022/05/27 09:02:45;;;;;;;62.17;13.30;;;;;;;;;;5092135;28;20043;-71
2022/05/27 09:06:02;;;;;;;33.03;7.50;;;;;;;;;;5091879;28;20059;-71
2022/05/27 09:09:08;;;;;;;28.63;8.30;;;;;;;;;;5092228;28;20213;-72
2022/05/27 09:12:25;;;;;;;34.05;6.63;;;;;;;;;;5092233;28;20043;-71
2022/05/27 09:15:41;;;;;;;30.40;7.70;;;;;;;;;;5091813;28;20036;-71
2022/05/27 09:18:53;;;;;;;36.65;7.43;;;;;;;;;;5091981;28;20036;-70
2022/05/27 09:21:57;;;;;;;42.72;7.53;;;;;;;;;;5091759;28;20051;-67
2022/05/27 09:25:15;;;;;;;26.30;7.57;;;;;;;;;;5091427;28;20128;-71
2022/05/27 09:28:23;;;;;;;40.83;7.78;;;;;;;;;;5091554;28;20032;-73
2022/05/27 09:31:31;;;;;;;24.00;7.53;;;;;;;;;;5091442;28;20051;-69
2022/05/27 09:34:37;;;;;;;29.25;5.97;;;;;;;;;;5091717;28;20036;-69
2022/05/27 09:37:44;;;;;;;22.27;6.78;;;;;;;;;;5091680;28;20388;-71
2022/05/27 09:40:53;;;;;;;26.13;7.40;;;;;;;;;;5091482;28;20039;-72
2022/05/27 09:44:12;;;;;;;26.92;7.57;;;;;;;;;;5091107;28;20040;-70
2022/05/27 09:47:18;;;;;;;40.55;13.77;;;;;;;;;;5090884;28;20063;-70
2022/05/27 09:50:40;;;;;;;25.02;7.43;;;;;;;;;;5090685;28;20404;-70
2022/05/27 09:53:48;;;;;;;30.67;7.28;;;;;;;;;;5091006;28;20049;-71
2022/05/27 09:57:03;;;;;;;30.58;7.85;;;;;;;;;;5091293;28;20049;-68
2022/05/27 10:00:11;;;;;;;26.33;7.07;;;;;;;;;;5090282;28;20043;-71
2022/05/27 10:03:24;;;;;;;36.17;7.70;;;;;;;;;;5091270;28;20063;-71
2022/05/27 10:06:32;;;;;;;29.13;6.97;;;;;;;;;;5090137;28;20048;-70
2022/05/27 10:09:36;;;;;;;24.25;6.80;;;;;;;;;;5090639;28;20036;-72
2022/05/27 10:12:41;;;;;;;31.20;7.45;;;;;;;;;;5091373;28;20039;-72
2022/05/27 10:15:46;;;;;;;33.72;8.50;;;;;;;;;;5090056;28;20392;-71
2022/05/27 10:19:05;;;;;;;32.05;7.97;;;;;;;;;;5089759;28;20365;-69
2022/05/27 10:22:28;;;;;;;35.10;8.35;;;;;;;;;;5089928;28;20043;-70
2022/05/27 10:25:37;;;;;;;34.17;7.97;;;;;;;;;;5089731;28;20403;-67
2022/05/27 10:28:42;;;;;;;25.10;6.05;;;;;;;;;;5091169;28;20039;-68
2022/05/27 10:31:50;;;;;;;35.05;6.88;;;;;;;;;;5091185;28;20040;-68
2022/05/27 10:34:55;;;;;;;35.55;7.15;;;;;;;;;;5089793;28;20055;-68
2022/05/27 10:38:13;;;;;;;30.92;7.55;;;;;;;;;;5094767;28;20036;-69
2022/05/27 10:41:19;;;;;;;28.10;6.28;;;;;;;;;;5095045;28;20032;-72
2022/05/27 10:44:24;;;;;;;39.35;6.55;;;;;;;;;;5093776;28;20051;-71
2022/05/27 10:47:46;;;;;;;23.77;6.05;;;;;;;;;;5094691;28;20506;-71
2022/05/27 10:50:56;;;;;;;16.65;5.20;;;;;;;;;;5093461;28;20530;-73
2022/05/27 10:54:19;;;;;;;34.78;6.38;;;;;;;;;;5093627;28;20047;-71
2022/05/27 11:04:26;;;;;;;28.08;6.28;;;;;;;;;;5094321;28;20120;-70
2022/05/27 11:07:31;;;;;;;;;;;;;;;;;;5095118;28;20055;-72
2022/05/27 11:10:40;;;;;;;30.42;6.43;;;;;;;;;;5094300;28;19915;-71
2022/05/27 11:17:25;;;;;;;29.50;6.82;;;;;;;;;;5093945;28;20051;-72
2022/05/27 11:20:42;;;;;;;24.75;7.13;;;;;;;;;;5094310;28;20495;-71
2022/05/27 11:24:07;;;;;;;31.98;7.10;;;;;;;;;;5093955;28;20036;-71
2022/05/27 11:27:23;;;;;;;23.70;6.75;;;;;;;;;;5093754;28;20055;-71
2022/05/27 11:30:31;;;;;;;31.67;6.75;;;;;;;;;;5094054;28;20059;-71
2022/05/27 11:33:56;;;;;;;33.97;6.75;;;;;;;;;;5094050;28;20063;-72
2022/05/27 11:37:11;;;;;;;38.25;7.38;;;;;;;;;;5095032;28;20046;-71
2022/05/27 11:40:16;;;;;;;31.42;8.02;;;;;;;;;;5093011;28;20036;-71
2022/05/27 11:43:26;;;;;;;28.77;7.88;;;;;;;;;;5093712;28;20044;-70
2022/05/27 11:46:46;;;;;;;27.23;8.32;;;;;;;;;;5093304;28;20044;-72
2022/05/27 11:49:53;;;;;;;45.95;9.00;;;;;;;;;;5093202;28;20040;-71
2022/05/27 11:53:01;;;;;;;37.80;6.70;;;;;;;;;;5092762;28;20044;-71
2022/05/27 11:56:22;;;;;;;24.33;6.63;;;;;;;;;;5093603;28;20509;-72
2022/05/27 11:59:32;;;;;;;30.40;6.63;;;;;;;;;;5093306;28;20512;-72
2022/05/27 12:02:36;;;;;;;29.67;7.93;;;;;;;;;;5093396;28;20032;-70
2022/05/27 12:05:52;;;;;;;26.38;7.38;;;;;;;;;;5093169;28;20462;-71
2022/05/27 12:08:59;;;;;;;27.85;7.93;;;;;;;;;;5093571;28;20241;-72
2022/05/27 12:12:07;;;;;;;39.80;7.43;;;;;;;;;;5080935;28;20052;-73
2022/05/27 12:15:19;;;;;;;34.05;7.97;;;;;;;;;;5092860;28;20415;-71
2022/05/27 12:18:26;;;;;;;27.88;7.53;;;;;;;;;;5093031;28;20047;-72
2022/05/27 12:21:38;;;;;;;24.35;7.35;;;;;;;;;;5092815;28;20040;-71
2022/05/27 12:24:43;;;;;;;37.63;7.47;;;;;;;;;;5092016;28;20044;-72
2022/05/27 12:27:49;;;;;;;40.92;8.63;;;;;;;;;;5092910;28;20522;-72
2022/05/27 12:30:56;;;;;;;34.85;8.75;;;;;;;;;;5092851;28;20051;-72
2022/05/27 12:34:27;;;;;;;34.13;8.25;;;;;;;;;;5092696;28;20114;-71
2022/05/27 12:37:31;;;;;;;36.55;8.18;;;;;;;;;;5087943;28;20040;-71
2022/05/27 12:40:55;;;;;;;27.13;9.02;;;;;;;;;;5094671;28;20031;-71
2022/05/27 12:44:01;;;;;;;33.75;7.97;;;;;;;;;;5093212;28;20048;-72
2022/05/27 12:47:06;;;;;;;29.60;8.23;;;;;;;;;;5092599;28;20043;-72
2022/05/27 12:50:13;;;;;;;32.90;7.75;;;;;;;;;;5092772;28;20032;-73
2022/05/27 12:53:20;;;;;;;46.20;9.30;;;;;;;;;;5091849;28;20474;-72
2022/05/27 13:03:30;;;;;;;22.70;7.10;;;;;;;;;;5092385;28;20047;-70
2022/05/27 13:06:37;;;;;;;25.55;6.45;;;;;;;;;;5092085;28;20648;-70
2022/05/27 13:09:43;;;;;;;24.63;6.82;;;;;;;;;;5092121;28;20040;-70
2022/05/27 13:12:48;;;;;;;32.80;7.00;;;;;;;;;;5092149;28;20043;-72
2022/05/27 13:16:04;;;;;;;25.30;6.80;;;;;;;;;;5092481;28;20028;-72
2022/05/27 13:19:26;;;;;;;25.10;6.68;;;;;;;;;;5092700;28;20044;-70
2022/05/27 13:22:34;;;;;;;18.92;6.45;;;;;;;;;;5091058;28;20047;-70
2022/05/27 13:25:39;;;;;;;17.15;5.72;;;;;;;;;;5091910;28;20036;-69
2022/05/27 13:28:48;;;;;;;12.32;5.55;;;;;;;;;;5091668;28;20032;-70
2022/05/27 13:31:58;;;;;;;20.92;6.55;;;;;;;;;;5091520;28;20032;-68
2022/05/27 13:35:09;;;;;;;17.55;7.00;;;;;;;;;;5091623;28;20040;-71
2022/05/27 13:38:16;;;;;;;19.13;6.90;;;;;;;;;;5091388;28;20044;-68
2022/05/27 13:41:21;;;;;;;18.63;6.63;;;;;;;;;;5091590;28;20053;-70
2022/05/27 13:44:25;;;;;;;16.45;6.65;;;;;;;;;;5091005;28;20052;-71
2022/05/27 13:47:30;;;;;;;32.70;7.50;;;;;;;;;;5091652;28;20040;-72
2022/05/27 13:50:37;;;;;;;23.52;7.85;;;;;;;;;;5091432;28;20036;-73
2022/05/27 13:53:43;;;;;;;33.00;6.50;;;;;;;;;;5091658;28;20113;-73
2022/05/27 13:56:57;;;;;;;23.80;6.88;;;;;;;;;;5079797;28;20043;-71
2022/05/27 14:00:02;;;;;;;31.50;7.40;;;;;;;;;;5091742;28;20040;-71
2022/05/27 14:03:28;;;;;;;34.83;7.20;;;;;;;;;;5091523;28;20036;-71
2022/05/27 14:06:32;;;;;;;28.48;6.22;;;;;;;;;;5090293;28;20415;-71
2022/05/27 14:09:36;;;;;;;25.05;6.05;;;;;;;;;;5092199;28;20028;-71
2022/05/27 14:12:41;;;;;;;27.35;5.90;;;;;;;;;;5090956;28;20055;-72
2022/05/27 14:15:45;;;;;;;31.45;6.65;;;;;;;;;;5078920;28;20040;-71
2022/05/27 14:18:51;;;;;;;16.70;6.03;;;;;;;;;;5090601;28;20051;-71
2022/05/27 14:25:21;;;;;;;20.75;6.22;;;;;;;;;;5091108;28;20107;-70
2022/05/27 14:28:29;;;;;;;30.92;6.80;;;;;;;;;;5090921;28;20032;-69
2022/05/27 14:31:38;;;;;;;18.83;6.05;;;;;;;;;;5090143;28;20029;-69
2022/05/27 14:34:44;;;;;;;15.18;5.43;;;;;;;;;;5090021;28;20045;-71
2022/05/27 14:37:54;;;;;;;19.42;6.30;;;;;;;;;;5091093;28;20036;-70
2022/05/27 14:40:59;;;;;;;15.85;4.88;;;;;;;;;;5090685;28;20041;-70
2022/05/27 14:44:03;;;;;;;13.20;4.82;;;;;;;;;;5090317;28;20048;-70
2022/05/27 14:47:23;;;;;;;21.25;5.75;;;;;;;;;;5089729;28;20044;-70
2022/05/27 14:50:33;;;;;;;18.20;5.40;;;;;;;;;;5090993;28;20391;-69
2022/05/27 14:53:37;;;;;;;15.02;5.05;;;;;;;;;;5090911;28;20365;-68
2022/05/27 14:56:42;;;;;;;20.52;6.75;;;;;;;;;;5090298;28;20532;-70
2022/05/27 14:59:54;;;;;;;17.65;6.65;;;;;;;;;;5090750;28;20040;-71
2022/05/27 15:03:00;;;;;;;20.58;6.50;;;;;;;;;;5091010;28;20040;-71
2022/05/27 15:06:10;;;;;;;21.23;6.18;;;;;;;;;;5090545;28;20055;-72
2022/05/27 15:09:35;;;;;;;26.52;8.50;;;;;;;;;;5090979;28;20044;-71
2022/05/27 15:12:39;;;;;;;27.45;6.60;;;;;;;;;;5090737;28;20055;-72
2022/05/27 15:15:44;;;;;;;49.58;19.67;;;;;;;;;;5090829;28;20365;-72
2022/05/27 15:18:54;;;;;;;22.02;9.23;;;;;;;;;;5089499;28;20047;-72
2022/05/27 15:22:04;;;;;;;26.40;6.07;;;;;;;;;;5091044;28;20108;-72
2022/05/27 15:25:11;;;;;;;23.02;6.13;;;;;;;;;;5093891;28;20028;-72
2022/05/27 15:35:11;;;;;;;41.90;10.07;;;;;;;;;;5093531;28;20420;-72
2022/05/27 15:38:18;;;;;;;31.42;7.40;;;;;;;;;;5092801;28;20059;-72
2022/05/27 15:41:22;;;;;;;24.45;6.13;;;;;;;;;;5093641;28;20038;-72
2022/05/27 15:44:26;;;;;;;20.45;5.82;;;;;;;;;;5093343;28;20521;-72
2022/05/27 15:47:32;;;;;;;33.45;7.35;;;;;;;;;;5093501;28;20071;-72
2022/05/27 15:50:37;;;;;;;24.23;6.07;;;;;;;;;;5092532;28;20039;-72
2022/05/27 15:53:41;;;;;;;23.92;6.28;;;;;;;;;;5092730;28;20047;-73
2022/05/27 15:56:45;;;;;;;35.63;5.97;;;;;;;;;;5093724;28;20043;-72
2022/05/27 15:59:50;;;;;;;29.95;6.68;;;;;;;;;;5093265;28;20396;-72
2022/05/27 16:02:54;;;;;;;29.55;5.70;;;;;;;;;;5093421;28;20036;-71
2022/05/27 16:06:00;;;;;;;31.20;6.18;;;;;;;;;;5093134;28;20040;-71
2022/05/27 16:09:05;;;;;;;33.85;6.70;;;;;;;;;;5093705;28;20032;-71
2022/05/27 16:12:09;;;;;;;62.28;6.97;;;;;;;;;;5093622;28;20039;-71
2022/05/27 16:15:13;;;;;;;28.50;5.63;;;;;;;;;;5092276;28;20041;-72
2022/05/27 16:18:19;;;;;;;29.67;5.78;;;;;;;;;;5092257;28;20039;-72
2022/05/27 16:21:24;;;;;;;46.08;6.50;;;;;;;;;;5092998;28;20040;-72
2022/05/27 16:24:28;;;;;;;25.15;5.93;;;;;;;;;;5092959;28;20403;-71
2022/05/27 16:27:34;;;;;;;48.67;7.45;;;;;;;;;;5092958;28;20044;-72
2022/05/27 16:30:46;;;;;;;27.60;6.78;;;;;;;;;;5092613;28;20055;-72
2022/05/27 16:33:51;;;;;;;34.80;6.43;;;;;;;;;;5090884;28;20133;-72
2022/05/27 16:36:56;;;;;;;21.83;7.10;;;;;;;;;;5092794;28;20035;-72
2022/05/27 16:40:00;;;;;;;16.20;6.00;;;;;;;;;;5092638;28;20045;-72
2022/05/27 16:43:05;;;;;;;27.23;6.38;;;;;;;;;;5091861;28;20505;-72
2022/05/27 16:46:09;;;;;;;25.50;6.13;;;;;;;;;;5091710;28;20032;-73
2022/05/27 16:49:15;;;;;;;25.23;5.97;;;;;;;;;;5092672;28;20051;-72
2022/05/27 16:52:21;;;;;;;27.73;6.18;;;;;;;;;;5091506;28;20475;-72
2022/05/27 16:55:26;;;;;;;17.77;5.70;;;;;;;;;;5092484;28;20043;-73
2022/05/27 16:58:30;;;;;;;28.00;5.90;;;;;;;;;;5091579;28;20032;-73
2022/05/27 17:01:35;;;;;;;23.77;6.90;;;;;;;;;;5092519;28;20047;-72
2022/05/27 17:04:41;;;;;;;38.17;6.53;;;;;;;;;;5092158;28;20035;-72
2022/05/27 17:07:46;;;;;;;29.45;6.68;;;;;;;;;;5091136;28;20051;-73
2022/05/27 17:10:51;;;;;;;34.70;7.78;;;;;;;;;;5092315;28;20032;-72
2022/05/27 17:13:56;;;;;;;28.40;6.45;;;;;;;;;;5090935;28;20201;-72
2022/05/27 17:17:00;;;;;;;36.20;7.07;;;;;;;;;;5091985;28;20036;-72
2022/05/27 17:20:05;;;;;;;30.40;6.53;;;;;;;;;;5092133;28;20404;-72
2022/05/27 17:23:09;;;;;;;32.58;6.78;;;;;;;;;;5091727;28;20040;-72
2022/05/27 17:26:14;;;;;;;35.33;7.38;;;;;;;;;;5091397;28;20043;-73
2022/05/27 17:29:18;;;;;;;28.27;7.78;;;;;;;;;;5091149;28;20052;-74
2022/05/27 17:32:23;;;;;;;23.40;6.75;;;;;;;;;;5091887;28;20039;-72
2022/05/27 17:35:27;;;;;;;26.17;7.50;;;;;;;;;;5091718;28;20051;-73
2022/05/27 17:38:31;;;;;;;24.45;7.07;;;;;;;;;;5092965;28;20036;-73
2022/05/27 17:41:35;;;;;;;32.65;7.45;;;;;;;;;;5090519;28;20480;-73
2022/05/27 17:44:40;;;;;;;32.50;9.18;;;;;;;;;;5091332;28;20044;-72
2022/05/27 17:51:24;;;;;;;38.00;7.78;;;;;;;;;;5091599;28;20031;-72
2022/05/27 17:54:29;;;;;;;35.80;7.78;;;;;;;;;;5091233;28;20051;-71
2022/05/27 17:57:33;;;;;;;30.88;7.78;;;;;;;;;;5078993;28;20427;-72
2022/05/27 18:00:38;;;;;;;36.03;8.80;;;;;;;;;;5079007;28;20048;-72
2022/05/27 18:03:44;;;;;;;33.00;9.63;;;;;;;;;;5091523;28;20032;-73
2022/05/27 18:06:49;;;;;;;33.40;8.55;;;;;;;;;;5090438;28;20048;-73
2022/05/27 18:09:53;;;;;;;43.63;9.25;;;;;;;;;;5091557;28;20047;-74
2022/05/27 18:12:57;;;;;;;47.80;10.23;;;;;;;;;;5090400;28;20040;-72
2022/05/27 18:16:07;;;;;;;58.75;11.63;;;;;;;;;;5079302;28;20050;-72
2022/05/27 18:19:14;;;;;;;35.33;10.52;;;;;;;;;;5091591;28;20055;-72
2022/05/27 18:22:20;;;;;;;61.63;13.38;;;;;;;;;;5092318;28;20047;-72
2022/05/27 18:25:25;;;;;;;46.17;11.63;;;;;;;;;;5092751;28;20051;-72
2022/05/27 18:28:29;;;;;;;38.33;11.13;;;;;;;;;;5090555;28;20407;-73
2022/05/27 18:31:34;;;;;;;34.63;10.77;;;;;;;;;;5091050;28;20043;-72
2022/05/27 18:34:38;;;;;;;32.72;10.45;;;;;;;;;;5091386;28;20055;-73
2022/05/27 18:37:43;;;;;;;35.03;10.32;;;;;;;;;;5091126;28;20039;-73
2022/05/27 18:40:48;;;;;;;36.45;9.73;;;;;;;;;;5091459;28;20054;-73
2022/05/27 18:43:54;;;;;;;32.05;9.60;;;;;;;;;;5090877;28;20048;-73
2022/05/27 18:46:58;;;;;;;38.80;10.70;;;;;;;;;;5090156;28;20056;-73
2022/05/27 18:50:03;;;;;;;34.83;11.65;;;;;;;;;;5091195;28;20051;-73
2022/05/27 18:53:09;;;;;;;42.45;8.98;;;;;;;;;;5091007;28;20288;-72
2022/05/27 18:56:13;;;;;;;28.05;8.93;;;;;;;;;;5091334;28;20043;-73
2022/05/27 18:59:17;;;;;;;26.10;8.88;;;;;;;;;;5093857;28;20050;-73
2022/05/27 19:02:22;;;;;;;27.90;9.40;;;;;;;;;;5094354;28;20035;-73
2022/05/27 19:05:26;;;;;;;34.47;9.73;;;;;;;;;;5095285;28;20032;-72
2022/05/27 19:08:32;;;;;;;39.90;9.75;;;;;;;;;;5095120;28;20047;-73
2022/05/27 19:11:36;;;;;;;38.85;9.90;;;;;;;;;;5094398;28;20492;-73
2022/05/27 19:14:44;;;;;;;38.35;9.93;;;;;;;;;;5094347;28;20040;-72